Terminal Aerodrome Forecast
Issued by NWS

Home | Current Version | Previous Version | Text Only | Print | Product List | Glossary On
Versions: 1 2 3 4 5 6 7 8 9 10 11 12 13
000
FTUS44 KLZK 232044 AAA
TAFHOT
TAF AMD
KHOT 232044Z 2321/2418 06006KT P6SM VCSH BKN035 BKN100
     FM240000 06007KT P6SM BKN050
     FM241200 08008KT P6SM BKN250=

USA.gov is the U.S. government's official web portal to all federal, state and local government web resources and services.